sensor_id;sensor_type;location;lat;lon;timestamp;P1;P4;P2;P0;N10;N4;N25;N1;N05;TS
42106;SPS30;27764;50.278;19.032;2023-02-12T00:02:04;18;;18;;;;;;;
42106;SPS30;27764;50.278;19.032;2023-02-12T00:05:07;18;;17;;;;;;;
42106;SPS30;27764;50.278;19.032;2023-02-12T00:08:11;19;;19;;;;;;;
42106;SPS30;27764;50.278;19.032;2023-02-12T00:11:18;18;;18;;;;;;;
42106;SPS30;27764;50.278;19.032;2023-02-12T00:14:24;18;;17;;;;;;;
42106;SPS30;27764;50.278;19.032;2023-02-12T00:17:27;18;;18;;;;;;;
42106;SPS30;27764;50.278;19.032;2023-02-12T00:21:09;17;;17;;;;;;;
42106;SPS30;27764;50.278;19.032;2023-02-12T00:24:15;17;;17;;;;;;;
42106;SPS30;27764;50.278;19.032;2023-02-12T00:27:18;16;;16;;;;;;;
42106;SPS30;27764;50.278;19.032;2023-02-12T05:34:38;19;;19;;;;;;;
42106;SPS30;27764;50.278;19.032;2023-02-12T05:38:57;19;;19;;;;;;;
42106;SPS30;27764;50.278;19.032;2023-02-12T05:43:14;19;;19;;;;;;;
42106;SPS30;27764;50.278;19.032;2023-02-12T05:47:32;19;;19;;;;;;;
42106;SPS30;27764;50.278;19.032;2023-02-12T05:51:50;19;;19;;;;;;;
42106;SPS30;27764;50.278;19.032;2023-02-12T05:56:12;19;;19;;;;;;;
42106;SPS30;27764;50.278;19.032;2023-02-12T06:00:27;19;;19;;;;;;;
42106;SPS30;27764;50.278;19.032;2023-02-12T06:04:45;19;;19;;;;;;;
42106;SPS30;27764;50.278;19.032;2023-02-12T06:09:03;19;;19;;;;;;;
42106;SPS30;27764;50.278;19.032;2023-02-12T06:13:21;19;;19;;;;;;;
42106;SPS30;27764;50.278;19.032;2023-02-12T06:17:39;19;;19;;;;;;;
42106;SPS30;27764;50.278;19.032;2023-02-12T06:21:57;19;;19;;;;;;;
42106;SPS30;27764;50.278;19.032;2023-02-12T06:26:16;19;;19;;;;;;;
42106;SPS30;27764;50.278;19.032;2023-02-12T06:30:34;19;;19;;;;;;;
42106;SPS30;27764;50.278;19.032;2023-02-12T06:34:52;19;;19;;;;;;;
42106;SPS30;27764;50.278;19.032;2023-02-12T06:39:11;19;;19;;;;;;;
42106;SPS30;27764;50.278;19.032;2023-02-12T06:43:28;19;;19;;;;;;;
42106;SPS30;27764;50.278;19.032;2023-02-12T06:47:46;19;;19;;;;;;;
42106;SPS30;27764;50.278;19.032;2023-02-12T06:52:04;19;;19;;;;;;;
42106;SPS30;27764;50.278;19.032;2023-02-12T06:56:23;19;;19;;;;;;;
42106;SPS30;27764;50.278;19.032;2023-02-12T07:00:41;19;;19;;;;;;;
42106;SPS30;27764;50.278;19.032;2023-02-12T07:04:59;19;;19;;;;;;;
42106;SPS30;27764;50.278;19.032;2023-02-12T07:09:17;19;;19;;;;;;;
42106;SPS30;27764;50.278;19.032;2023-02-12T07:13:35;19;;19;;;;;;;
42106;SPS30;27764;50.278;19.032;2023-02-12T07:17:53;19;;19;;;;;;;
42106;SPS30;27764;50.278;19.032;2023-02-12T07:22:11;19;;19;;;;;;;
42106;SPS30;27764;50.278;19.032;2023-02-12T07:26:30;19;;19;;;;;;;
42106;SPS30;27764;50.278;19.032;2023-02-12T07:30:48;19;;19;;;;;;;
42106;SPS30;27764;50.278;19.032;2023-02-12T07:35:07;19;;19;;;;;;;
42106;SPS30;27764;50.278;19.032;2023-02-12T07:39:24;19;;19;;;;;;;
42106;SPS30;27764;50.278;19.032;2023-02-12T07:43:43;19;;19;;;;;;;
42106;SPS30;27764;50.278;19.032;2023-02-12T07:48:00;19;;19;;;;;;;
42106;SPS30;27764;50.278;19.032;2023-02-12T07:52:18;19;;19;;;;;;;
42106;SPS30;27764;50.278;19.032;2023-02-12T07:56:37;19;;19;;;;;;;
42106;SPS30;27764;50.278;19.032;2023-02-12T08:00:55;19;;19;;;;;;;
42106;SPS30;27764;50.278;19.032;2023-02-12T08:05:13;19;;19;;;;;;;
42106;SPS30;27764;50.278;19.032;2023-02-12T08:09:31;19;;19;;;;;;;
42106;SPS30;27764;50.278;19.032;2023-02-12T08:12:34;9;;9;;;;;;;
42106;SPS30;27764;50.278;19.032;2023-02-12T08:15:38;4;;4;;;;;;;
42106;SPS30;27764;50.278;19.032;2023-02-12T08:18:41;5;;5;;;;;;;
42106;SPS30;27764;50.278;19.032;2023-02-12T08:21:47;4;;4;;;;;;;
42106;SPS30;27764;50.278;19.032;2023-02-12T08:24:52;4;;4;;;;;;;
42106;SPS30;27764;50.278;19.032;2023-02-12T08:27:56;4;;4;;;;;;;
42106;SPS30;27764;50.278;19.032;2023-02-12T08:31:03;4;;4;;;;;;;
42106;SPS30;27764;50.278;19.032;2023-02-12T08:34:41;5;;5;;;;;;;
42106;SPS30;27764;50.278;19.032;2023-02-12T08:37:44;4;;4;;;;;;;
42106;SPS30;27764;50.278;19.032;2023-02-12T08:40:48;4;;4;;;;;;;
42106;SPS30;27764;50.278;19.032;2023-02-12T08:43:53;5;;5;;;;;;;
42106;SPS30;27764;50.278;19.032;2023-02-12T08:46:58;5;;5;;;;;;;
42106;SPS30;27764;50.278;19.032;2023-02-12T08:50:02;4;;4;;;;;;;
42106;SPS30;27764;50.278;19.032;2023-02-12T08:53:05;5;;5;;;;;;;
42106;SPS30;27764;50.278;19.032;2023-02-12T08:56:09;4;;4;;;;;;;
42106;SPS30;27764;50.278;19.032;2023-02-12T08:59:57;4;;4;;;;;;;
42106;SPS30;27764;50.278;19.032;2023-02-12T09:03:01;5;;5;;;;;;;
42106;SPS30;27764;50.278;19.032;2023-02-12T09:06:05;5;;5;;;;;;;
42106;SPS30;27764;50.278;19.032;2023-02-12T09:09:09;5;;5;;;;;;;
42106;SPS30;27764;50.278;19.032;2023-02-12T09:12:13;4;;4;;;;;;;
42106;SPS30;27764;50.278;19.032;2023-02-12T09:15:16;4;;4;;;;;;;
42106;SPS30;27764;50.278;19.032;2023-02-12T09:18:19;5;;5;;;;;;;
42106;SPS30;27764;50.278;19.032;2023-02-12T09:22:10;4;;4;;;;;;;
42106;SPS30;27764;50.278;19.032;2023-02-12T09:25:14;4;;4;;;;;;;
42106;SPS30;27764;50.278;19.032;2023-02-12T09:28:17;5;;5;;;;;;;
42106;SPS30;27764;50.278;19.032;2023-02-12T09:31:22;5;;5;;;;;;;
42106;SPS30;27764;50.278;19.032;2023-02-12T09:34:28;5;;5;;;;;;;
42106;SPS30;27764;50.278;19.032;2023-02-12T09:37:31;6;;6;;;;;;;
42106;SPS30;27764;50.278;19.032;2023-02-12T09:41:01;7;;7;;;;;;;
42106;SPS30;27764;50.278;19.032;2023-02-12T09:52:16;5;;5;;;;;;;
42106;SPS30;27764;50.278;19.032;2023-02-12T09:55:29;6;;6;;;;;;;
42106;SPS30;27764;50.278;19.032;2023-02-12T09:58:37;6;;6;;;;;;;
42106;SPS30;27764;50.278;19.032;2023-02-12T10:01:48;6;;6;;;;;;;
42106;SPS30;27764;50.278;19.032;2023-02-12T10:04:52;6;;6;;;;;;;
42106;SPS30;27764;50.278;19.032;2023-02-12T10:08:03;6;;6;;;;;;;
42106;SPS30;27764;50.278;19.032;2023-02-12T10:15:04;7;;7;;;;;;;
42106;SPS30;27764;50.278;19.032;2023-02-12T10:24:52;7;;7;;;;;;;
42106;SPS30;27764;50.278;19.032;2023-02-12T10:28:38;9;;9;;;;;;;
42106;SPS30;27764;50.278;19.032;2023-02-12T10:31:44;9;;9;;;;;;;
42106;SPS30;27764;50.278;19.032;2023-02-12T10:34:51;9;;9;;;;;;;
42106;SPS30;27764;50.278;19.032;2023-02-12T10:37:57;9;;9;;;;;;;
42106;SPS30;27764;50.278;19.032;2023-02-12T10:41:06;8;;8;;;;;;;
42106;SPS30;27764;50.278;19.032;2023-02-12T10:44:13;8;;8;;;;;;;
42106;SPS30;27764;50.278;19.032;2023-02-12T10:47:20;10;;10;;;;;;;
42106;SPS30;27764;50.278;19.032;2023-02-12T10:57:38;9;;9;;;;;;;
42106;SPS30;27764;50.278;19.032;2023-02-12T11:00:41;9;;9;;;;;;;
42106;SPS30;27764;50.278;19.032;2023-02-12T11:03:45;10;;10;;;;;;;
42106;SPS30;27764;50.278;19.032;2023-02-12T11:07:07;10;;10;;;;;;;
42106;SPS30;27764;50.278;19.032;2023-02-12T11:10:44;8;;8;;;;;;;
42106;SPS30;27764;50.278;19.032;2023-02-12T11:17:02;10;;10;;;;;;;
42106;SPS30;27764;50.278;19.032;2023-02-12T11:20:07;10;;10;;;;;;;
42106;SPS30;27764;50.278;19.032;2023-02-12T11:26:33;11;;11;;;;;;;
42106;SPS30;27764;50.278;19.032;2023-02-12T11:30:20;9;;9;;;;;;;
42106;SPS30;27764;50.278;19.032;2023-02-12T11:33:25;9;;9;;;;;;;
42106;SPS30;27764;50.278;19.032;2023-02-12T11:36:41;9;;9;;;;;;;
42106;SPS30;27764;50.278;19.032;2023-02-12T11:39:48;8;;8;;;;;;;
42106;SPS30;27764;50.278;19.032;2023-02-12T11:46:03;9;;9;;;;;;;
42106;SPS30;27764;50.278;19.032;2023-02-12T11:49:57;8;;8;;;;;;;
42106;SPS30;27764;50.278;19.032;2023-02-12T11:53:07;8;;8;;;;;;;
42106;SPS30;27764;50.278;19.032;2023-02-12T11:56:12;9;;9;;;;;;;
42106;SPS30;27764;50.278;19.032;2023-02-12T12:02:33;9;;9;;;;;;;
42106;SPS30;27764;50.278;19.032;2023-02-12T12:05:43;10;;10;;;;;;;
42106;SPS30;27764;50.278;19.032;2023-02-12T12:12:57;9;;9;;;;;;;
42106;SPS30;27764;50.278;19.032;2023-02-12T12:16:08;8;;8;;;;;;;
42106;SPS30;27764;50.278;19.032;2023-02-12T12:19:35;7;;7;;;;;;;
42106;SPS30;27764;50.278;19.032;2023-02-12T12:23:34;6;;6;;;;;;;
42106;SPS30;27764;50.278;19.032;2023-02-12T12:26:43;6;;6;;;;;;;
42106;SPS30;27764;50.278;19.032;2023-02-12T12:29:57;5;;5;;;;;;;
42106;SPS30;27764;50.278;19.032;2023-02-12T12:33:12;5;;5;;;;;;;
42106;SPS30;27764;50.278;19.032;2023-02-12T12:46:59;5;;5;;;;;;;
42106;SPS30;27764;50.278;19.032;2023-02-12T13:07:10;7;;7;;;;;;;
42106;SPS30;27764;50.278;19.032;2023-02-12T13:13:39;5;;5;;;;;;;
42106;SPS30;27764;50.278;19.032;2023-02-12T13:17:23;6;;6;;;;;;;
42106;SPS30;27764;50.278;19.032;2023-02-12T13:27:06;7;;7;;;;;;;
42106;SPS30;27764;50.278;19.032;2023-02-12T13:30:17;7;;7;;;;;;;
42106;SPS30;27764;50.278;19.032;2023-02-12T13:33:27;7;;7;;;;;;;
42106;SPS30;27764;50.278;19.032;2023-02-12T13:37:17;6;;6;;;;;;;
42106;SPS30;27764;50.278;19.032;2023-02-12T13:40:27;8;;8;;;;;;;
42106;SPS30;27764;50.278;19.032;2023-02-12T13:53:25;10;;10;;;;;;;
42106;SPS30;27764;50.278;19.032;2023-02-12T13:57:12;9;;9;;;;;;;
42106;SPS30;27764;50.278;19.032;2023-02-12T14:03:33;11;;11;;;;;;;
42106;SPS30;27764;50.278;19.032;2023-02-12T14:06:38;9;;9;;;;;;;
42106;SPS30;27764;50.278;19.032;2023-02-12T14:20:20;9;;9;;;;;;;
42106;SPS30;27764;50.278;19.032;2023-02-12T14:23:29;9;;9;;;;;;;
42106;SPS30;27764;50.278;19.032;2023-02-12T14:26:35;10;;10;;;;;;;
42106;SPS30;27764;50.278;19.032;2023-02-12T14:29:40;9;;9;;;;;;;
42106;SPS30;27764;50.278;19.032;2023-02-12T14:33:32;10;;10;;;;;;;
42106;SPS30;27764;50.278;19.032;2023-02-12T14:36:39;9;;9;;;;;;;
42106;SPS30;27764;50.278;19.032;2023-02-12T14:39:45;10;;10;;;;;;;
42106;SPS30;27764;50.278;19.032;2023-02-12T14:42:53;12;;12;;;;;;;
42106;SPS30;27764;50.278;19.032;2023-02-12T14:46:41;9;;9;;;;;;;
42106;SPS30;27764;50.278;19.032;2023-02-12T14:49:56;10;;10;;;;;;;
42106;SPS30;27764;50.278;19.032;2023-02-12T14:56:27;8;;8;;;;;;;
42106;SPS30;27764;50.278;19.032;2023-02-12T14:59:31;9;;9;;;;;;;
42106;SPS30;27764;50.278;19.032;2023-02-12T15:02:41;9;;9;;;;;;;
42106;SPS30;27764;50.278;19.032;2023-02-12T15:05:49;8;;8;;;;;;;
42106;SPS30;27764;50.278;19.032;2023-02-12T15:09:18;8;;8;;;;;;;
42106;SPS30;27764;50.278;19.032;2023-02-12T15:12:52;8;;8;;;;;;;
42106;SPS30;27764;50.278;19.032;2023-02-12T15:16:02;8;;8;;;;;;;
42106;SPS30;27764;50.278;19.032;2023-02-12T15:22:29;8;;8;;;;;;;
42106;SPS30;27764;50.278;19.032;2023-02-12T15:25:35;9;;9;;;;;;;
42106;SPS30;27764;50.278;19.032;2023-02-12T15:28:39;8;;8;;;;;;;
42106;SPS30;27764;50.278;19.032;2023-02-12T15:35:33;9;;9;;;;;;;
42106;SPS30;27764;50.278;19.032;2023-02-12T15:38:39;9;;9;;;;;;;
42106;SPS30;27764;50.278;19.032;2023-02-12T15:41:43;9;;9;;;;;;;
42106;SPS30;27764;50.278;19.032;2023-02-12T15:48:22;9;;9;;;;;;;
42106;SPS30;27764;50.278;19.032;2023-02-12T15:55:26;11;;11;;;;;;;
42106;SPS30;27764;50.278;19.032;2023-02-12T15:58:45;10;;10;;;;;;;
42106;SPS30;27764;50.278;19.032;2023-02-12T16:01:53;11;;11;;;;;;;
42106;SPS30;27764;50.278;19.032;2023-02-12T16:05:05;12;;12;;;;;;;
42106;SPS30;27764;50.278;19.032;2023-02-12T16:08:53;15;;15;;;;;;;
42106;SPS30;27764;50.278;19.032;2023-02-12T16:12:02;18;;18;;;;;;;
42106;SPS30;27764;50.278;19.032;2023-02-12T16:18:26;20;;20;;;;;;;
42106;SPS30;27764;50.278;19.032;2023-02-12T16:21:29;21;;21;;;;;;;
42106;SPS30;27764;50.278;19.032;2023-02-12T16:24:37;24;;24;;;;;;;
42106;SPS30;27764;50.278;19.032;2023-02-12T16:28:27;31;;31;;;;;;;
42106;SPS30;27764;50.278;19.032;2023-02-12T16:31:32;35;;34;;;;;;;
42106;SPS30;27764;50.278;19.032;2023-02-12T16:34:36;32;;31;;;;;;;
42106;SPS30;27764;50.278;19.032;2023-02-12T16:37:42;28;;28;;;;;;;
42106;SPS30;27764;50.278;19.032;2023-02-12T16:51:27;27;;27;;;;;;;
42106;SPS30;27764;50.278;19.032;2023-02-12T16:54:33;27;;27;;;;;;;
42106;SPS30;27764;50.278;19.032;2023-02-12T16:57:37;27;;27;;;;;;;
42106;SPS30;27764;50.278;19.032;2023-02-12T17:00:41;26;;26;;;;;;;
42106;SPS30;27764;50.278;19.032;2023-02-12T17:03:44;64;;64;;;;;;;
42106;SPS30;27764;50.278;19.032;2023-02-12T17:06:55;31;;31;;;;;;;
42106;SPS30;27764;50.278;19.032;2023-02-12T17:10:36;28;;28;;;;;;;
42106;SPS30;27764;50.278;19.032;2023-02-12T17:13:40;27;;27;;;;;;;
42106;SPS30;27764;50.278;19.032;2023-02-12T17:16:43;31;;31;;;;;;;
42106;SPS30;27764;50.278;19.032;2023-02-12T17:19:47;36;;36;;;;;;;
42106;SPS30;27764;50.278;19.032;2023-02-12T17:22:51;45;;45;;;;;;;
42106;SPS30;27764;50.278;19.032;2023-02-12T17:25:56;45;;45;;;;;;;
42106;SPS30;27764;50.278;19.032;2023-02-12T17:29:00;35;;35;;;;;;;
42106;SPS30;27764;50.278;19.032;2023-02-12T17:32:07;30;;30;;;;;;;
42106;SPS30;27764;50.278;19.032;2023-02-12T17:35:51;38;;37;;;;;;;
42106;SPS30;27764;50.278;19.032;2023-02-12T17:38:55;45;;45;;;;;;;
42106;SPS30;27764;50.278;19.032;2023-02-12T17:41:58;43;;43;;;;;;;
42106;SPS30;27764;50.278;19.032;2023-02-12T17:45:04;43;;42;;;;;;;
42106;SPS30;27764;50.278;19.032;2023-02-12T17:48:09;46;;46;;;;;;;
42106;SPS30;27764;50.278;19.032;2023-02-12T17:51:14;42;;42;;;;;;;
42106;SPS30;27764;50.278;19.032;2023-02-12T17:54:18;38;;37;;;;;;;
42106;SPS30;27764;50.278;19.032;2023-02-12T17:57:22;44;;44;;;;;;;
42106;SPS30;27764;50.278;19.032;2023-02-12T18:01:02;40;;40;;;;;;;
42106;SPS30;27764;50.278;19.032;2023-02-12T18:04:13;41;;41;;;;;;;
42106;SPS30;27764;50.278;19.032;2023-02-12T18:07:16;39;;39;;;;;;;
42106;SPS30;27764;50.278;19.032;2023-02-12T18:10:20;38;;37;;;;;;;
42106;SPS30;27764;50.278;19.032;2023-02-12T18:13:23;39;;39;;;;;;;
42106;SPS30;27764;50.278;19.032;2023-02-12T18:16:28;38;;38;;;;;;;
42106;SPS30;27764;50.278;19.032;2023-02-12T18:19:33;40;;40;;;;;;;
42106;SPS30;27764;50.278;19.032;2023-02-12T18:22:38;37;;36;;;;;;;
42106;SPS30;27764;50.278;19.032;2023-02-12T18:26:26;42;;41;;;;;;;
42106;SPS30;27764;50.278;19.032;2023-02-12T18:29:29;44;;43;;;;;;;
42106;SPS30;27764;50.278;19.032;2023-02-12T18:32:32;40;;40;;;;;;;
42106;SPS30;27764;50.278;19.032;2023-02-12T18:35:38;36;;36;;;;;;;
42106;SPS30;27764;50.278;19.032;2023-02-12T18:38:44;41;;41;;;;;;;
42106;SPS30;27764;50.278;19.032;2023-02-12T18:41:49;49;;49;;;;;;;
42106;SPS30;27764;50.278;19.032;2023-02-12T18:44:53;52;;51;;;;;;;
42106;SPS30;27764;50.278;19.032;2023-02-12T18:47:57;57;;57;;;;;;;
42106;SPS30;27764;50.278;19.032;2023-02-12T18:51:47;60;;60;;;;;;;
42106;SPS30;27764;50.278;19.032;2023-02-12T18:54:50;60;;60;;;;;;;
42106;SPS30;27764;50.278;19.032;2023-02-12T18:57:54;64;;63;;;;;;;
42106;SPS30;27764;50.278;19.032;2023-02-12T19:00:58;62;;62;;;;;;;
42106;SPS30;27764;50.278;19.032;2023-02-12T19:04:02;60;;59;;;;;;;
42106;SPS30;27764;50.278;19.032;2023-02-12T19:07:08;57;;56;;;;;;;
42106;SPS30;27764;50.278;19.032;2023-02-12T19:10:11;55;;55;;;;;;;
42106;SPS30;27764;50.278;19.032;2023-02-12T19:13:14;61;;61;;;;;;;
42106;SPS30;27764;50.278;19.032;2023-02-12T19:16:58;59;;58;;;;;;;
42106;SPS30;27764;50.278;19.032;2023-02-12T19:20:02;66;;66;;;;;;;
42106;SPS30;27764;50.278;19.032;2023-02-12T19:23:06;66;;66;;;;;;;
42106;SPS30;27764;50.278;19.032;2023-02-12T19:26:10;66;;66;;;;;;;
42106;SPS30;27764;50.278;19.032;2023-02-12T19:29:16;67;;67;;;;;;;
42106;SPS30;27764;50.278;19.032;2023-02-12T19:32:20;60;;59;;;;;;;
42106;SPS30;27764;50.278;19.032;2023-02-12T19:35:23;61;;60;;;;;;;
42106;SPS30;27764;50.278;19.032;2023-02-12T19:38:27;67;;66;;;;;;;
42106;SPS30;27764;50.278;19.032;2023-02-12T19:42:18;69;;69;;;;;;;
42106;SPS30;27764;50.278;19.032;2023-02-12T19:45:22;71;;71;;;;;;;
42106;SPS30;27764;50.278;19.032;2023-02-12T19:48:25;70;;69;;;;;;;
42106;SPS30;27764;50.278;19.032;2023-02-12T19:51:29;71;;71;;;;;;;
42106;SPS30;27764;50.278;19.032;2023-02-12T19:54:33;65;;65;;;;;;;
42106;SPS30;27764;50.278;19.032;2023-02-12T19:57:37;65;;64;;;;;;;
42106;SPS30;27764;50.278;19.032;2023-02-12T20:00:40;69;;68;;;;;;;
42106;SPS30;27764;50.278;19.032;2023-02-12T20:03:44;71;;70;;;;;;;
42106;SPS30;27764;50.278;19.032;2023-02-12T20:07:36;78;;77;;;;;;;
42106;SPS30;27764;50.278;19.032;2023-02-12T20:10:40;72;;71;;;;;;;
42106;SPS30;27764;50.278;19.032;2023-02-12T20:13:44;72;;71;;;;;;;
42106;SPS30;27764;50.278;19.032;2023-02-12T20:16:48;67;;67;;;;;;;
42106;SPS30;27764;50.278;19.032;2023-02-12T20:19:53;64;;63;;;;;;;
42106;SPS30;27764;50.278;19.032;2023-02-12T20:22:56;63;;62;;;;;;;
42106;SPS30;27764;50.278;19.032;2023-02-12T20:26:02;53;;52;;;;;;;
42106;SPS30;27764;50.278;19.032;2023-02-12T20:29:46;75;;74;;;;;;;
42106;SPS30;27764;50.278;19.032;2023-02-12T20:32:49;63;;63;;;;;;;
42106;SPS30;27764;50.278;19.032;2023-02-12T20:35:53;58;;57;;;;;;;
42106;SPS30;27764;50.278;19.032;2023-02-12T20:38:58;57;;56;;;;;;;
42106;SPS30;27764;50.278;19.032;2023-02-12T20:42:02;52;;51;;;;;;;
42106;SPS30;27764;50.278;19.032;2023-02-12T20:45:06;51;;50;;;;;;;
42106;SPS30;27764;50.278;19.032;2023-02-12T20:48:09;50;;50;;;;;;;
42106;SPS30;27764;50.278;19.032;2023-02-12T20:51:16;52;;52;;;;;;;
42106;SPS30;27764;50.278;19.032;2023-02-12T20:55:11;61;;60;;;;;;;
42106;SPS30;27764;50.278;19.032;2023-02-12T20:58:14;60;;59;;;;;;;
42106;SPS30;27764;50.278;19.032;2023-02-12T21:01:37;66;;65;;;;;;;
42106;SPS30;27764;50.278;19.032;2023-02-12T21:04:36;71;;70;;;;;;;
42106;SPS30;27764;50.278;19.032;2023-02-12T21:07:41;62;;62;;;;;;;
42106;SPS30;27764;50.278;19.032;2023-02-12T21:10:46;69;;68;;;;;;;
42106;SPS30;27764;50.278;19.032;2023-02-12T21:13:51;74;;74;;;;;;;
42106;SPS30;27764;50.278;19.032;2023-02-12T21:17:40;63;;62;;;;;;;
42106;SPS30;27764;50.278;19.032;2023-02-12T21:20:43;69;;69;;;;;;;
42106;SPS30;27764;50.278;19.032;2023-02-12T21:23:46;61;;60;;;;;;;
42106;SPS30;27764;50.278;19.032;2023-02-12T21:26:51;59;;59;;;;;;;
42106;SPS30;27764;50.278;19.032;2023-02-12T21:29:55;55;;54;;;;;;;
42106;SPS30;27764;50.278;19.032;2023-02-12T21:32:59;53;;53;;;;;;;
42106;SPS30;27764;50.278;19.032;2023-02-12T21:36:06;55;;54;;;;;;;
42106;SPS30;27764;50.278;19.032;2023-02-12T21:39:48;58;;58;;;;;;;
42106;SPS30;27764;50.278;19.032;2023-02-12T21:42:52;58;;58;;;;;;;
42106;SPS30;27764;50.278;19.032;2023-02-12T21:45:58;47;;46;;;;;;;
42106;SPS30;27764;50.278;19.032;2023-02-12T21:49:01;57;;56;;;;;;;
42106;SPS30;27764;50.278;19.032;2023-02-12T21:52:06;60;;59;;;;;;;
42106;SPS30;27764;50.278;19.032;2023-02-12T21:55:09;57;;56;;;;;;;
42106;SPS30;27764;50.278;19.032;2023-02-12T21:58:13;57;;57;;;;;;;
42106;SPS30;27764;50.278;19.032;2023-02-12T22:01:36;65;;65;;;;;;;
42106;SPS30;27764;50.278;19.032;2023-02-12T22:05:08;60;;59;;;;;;;
42106;SPS30;27764;50.278;19.032;2023-02-12T22:08:11;66;;65;;;;;;;
42106;SPS30;27764;50.278;19.032;2023-02-12T22:11:15;64;;63;;;;;;;
42106;SPS30;27764;50.278;19.032;2023-02-12T22:14:19;60;;59;;;;;;;
42106;SPS30;27764;50.278;19.032;2023-02-12T22:17:24;70;;68;;;;;;;
42106;SPS30;27764;50.278;19.032;2023-02-12T22:20:27;67;;66;;;;;;;
42106;SPS30;27764;50.278;19.032;2023-02-12T22:23:30;70;;69;;;;;;;
42106;SPS30;27764;50.278;19.032;2023-02-12T22:26:35;69;;68;;;;;;;
42106;SPS30;27764;50.278;19.032;2023-02-12T22:30:21;61;;60;;;;;;;
42106;SPS30;27764;50.278;19.032;2023-02-12T22:33:25;60;;59;;;;;;;
42106;SPS30;27764;50.278;19.032;2023-02-12T22:36:28;64;;63;;;;;;;
42106;SPS30;27764;50.278;19.032;2023-02-12T22:39:32;53;;53;;;;;;;
42106;SPS30;27764;50.278;19.032;2023-02-12T22:42:36;64;;63;;;;;;;
42106;SPS30;27764;50.278;19.032;2023-02-12T22:45:41;61;;60;;;;;;;
42106;SPS30;27764;50.278;19.032;2023-02-12T22:48:46;62;;61;;;;;;;
42106;SPS30;27764;50.278;19.032;2023-02-12T22:51:49;58;;57;;;;;;;
42106;SPS30;27764;50.278;19.032;2023-02-12T22:55:29;53;;53;;;;;;;
42106;SPS30;27764;50.278;19.032;2023-02-12T22:58:32;57;;56;;;;;;;
42106;SPS30;27764;50.278;19.032;2023-02-12T23:01:36;60;;59;;;;;;;
42106;SPS30;27764;50.278;19.032;2023-02-12T23:04:41;49;;49;;;;;;;
42106;SPS30;27764;50.278;19.032;2023-02-12T23:07:45;53;;53;;;;;;;
42106;SPS30;27764;50.278;19.032;2023-02-12T23:10:48;57;;56;;;;;;;
42106;SPS30;27764;50.278;19.032;2023-02-12T23:13:52;53;;52;;;;;;;
42106;SPS30;27764;50.278;19.032;2023-02-12T23:16:55;88;;58;;;;;;;
42106;SPS30;27764;50.278;19.032;2023-02-12T23:20:42;54;;54;;;;;;;
42106;SPS30;27764;50.278;19.032;2023-02-12T23:23:45;64;;64;;;;;;;
42106;SPS30;27764;50.278;19.032;2023-02-12T23:26:48;60;;60;;;;;;;
42106;SPS30;27764;50.278;19.032;2023-02-12T23:29:52;58;;57;;;;;;;
42106;SPS30;27764;50.278;19.032;2023-02-12T23:32:55;53;;53;;;;;;;
42106;SPS30;27764;50.278;19.032;2023-02-12T23:35:59;52;;51;;;;;;;
42106;SPS30;27764;50.278;19.032;2023-02-12T23:39:02;49;;48;;;;;;;
42106;SPS30;27764;50.278;19.032;2023-02-12T23:42:07;42;;41;;;;;;;
42106;SPS30;27764;50.278;19.032;2023-02-12T23:45:47;44;;44;;;;;;;
42106;SPS30;27764;50.278;19.032;2023-02-12T23:48:51;49;;47;;;;;;;
42106;SPS30;27764;50.278;19.032;2023-02-12T23:51:54;50;;49;;;;;;;
42106;SPS30;27764;50.278;19.032;2023-02-12T23:54:58;46;;45;;;;;;;
42106;SPS30;27764;50.278;19.032;2023-02-12T23:58:01;43;;43;;;;;;;
